Terminal Aerodrome Forecast
Issued by NWS

Home | Current Version | Previous Version | Text Only | Print | Product List | Glossary On
Versions: 1 2 3 4 5 6 7 8 9 10 11 12 13 14 15 16 17 18 19
445
FTUS43 KDTX 061436 AAB
TAFDET
TAF AMD
KDET 061436Z 0615/0712 08012KT P6SM SCT015 OVC150
     FM061800 08009KT 4SM -RA BR BKN015 OVC028
     FM062100 09006KT 2SM -RA BR OVC012
     FM070300 25015G23KT P6SM OVC015
     FM070800 24012KT P6SM OVC015=

USA.gov is the U.S. government's official web portal to all federal, state and local government web resources and services.